sensor_id;sensor_type;location;lat;lon;timestamp;pressure;altitude;pressure_sealevel;temperature;humidity
41102;BME280;26845;50.190;19.178;2023-06-19T00:00:31;98618.45;;;14.30;73.16
41102;BME280;26845;50.190;19.178;2023-06-19T00:03:37;98612.11;;;14.26;73.36
41102;BME280;26845;50.190;19.178;2023-06-19T00:06:43;98610.77;;;14.24;73.37
41102;BME280;26845;50.190;19.178;2023-06-19T00:09:49;98613.96;;;14.19;73.13
41102;BME280;26845;50.190;19.178;2023-06-19T00:12:55;98616.70;;;14.13;73.31
41102;BME280;26845;50.190;19.178;2023-06-19T00:15:43;98620.05;;;14.04;73.21
41102;BME280;26845;50.190;19.178;2023-06-19T00:18:49;98618.63;;;13.98;73.32
41102;BME280;26845;50.190;19.178;2023-06-19T00:22:08;98619.36;;;13.93;73.19
41102;BME280;26845;50.190;19.178;2023-06-19T00:25:09;98622.34;;;13.87;73.24
41102;BME280;26845;50.190;19.178;2023-06-19T00:28:15;98624.95;;;13.83;73.39
41102;BME280;26845;50.190;19.178;2023-06-19T00:31:21;98626.18;;;13.81;73.38
41102;BME280;26845;50.190;19.178;2023-06-19T00:34:28;98624.90;;;13.81;73.68
41102;BME280;26845;50.190;19.178;2023-06-19T00:37:33;98625.16;;;13.82;73.86
41102;BME280;26845;50.190;19.178;2023-06-19T00:40:38;98623.27;;;13.83;73.87
41102;BME280;26845;50.190;19.178;2023-06-19T00:43:44;98623.89;;;13.84;74.03
41102;BME280;26845;50.190;19.178;2023-06-19T00:47:00;98619.28;;;13.81;74.37
41102;BME280;26845;50.190;19.178;2023-06-19T00:49:56;98616.13;;;13.80;74.11
41102;BME280;26845;50.190;19.178;2023-06-19T00:53:03;98614.90;;;13.79;74.01
41102;BME280;26845;50.190;19.178;2023-06-19T00:56:08;98609.35;;;13.77;73.98
41102;BME280;26845;50.190;19.178;2023-06-19T00:59:15;98610.65;;;13.76;73.89
41102;BME280;26845;50.190;19.178;2023-06-19T01:02:20;98607.81;;;13.74;73.88
41102;BME280;26845;50.190;19.178;2023-06-19T01:05:26;98607.27;;;13.72;73.76
41102;BME280;26845;50.190;19.178;2023-06-19T01:11:58;98608.20;;;13.71;74.25
41102;BME280;26845;50.190;19.178;2023-06-19T01:15:03;98610.39;;;13.71;74.65
41102;BME280;26845;50.190;19.178;2023-06-19T01:18:12;98608.55;;;13.71;74.75
41102;BME280;26845;50.190;19.178;2023-06-19T01:21:30;98603.48;;;13.72;75.12
41102;BME280;26845;50.190;19.178;2023-06-19T01:24:45;98608.23;;;13.77;75.10
41102;BME280;26845;50.190;19.178;2023-06-19T01:27:18;98607.39;;;13.73;74.93
41102;BME280;26845;50.190;19.178;2023-06-19T01:29:52;98603.84;;;13.68;74.90
41102;BME280;26845;50.190;19.178;2023-06-19T01:32:48;98600.39;;;13.63;74.84
41102;BME280;26845;50.190;19.178;2023-06-19T01:35:15;98604.59;;;13.56;74.72
41102;BME280;26845;50.190;19.178;2023-06-19T01:37:49;98606.20;;;13.50;74.79
41102;BME280;26845;50.190;19.178;2023-06-19T01:40:22;98606.17;;;13.41;74.64
41102;BME280;26845;50.190;19.178;2023-06-19T01:42:56;98603.48;;;13.29;74.60
41102;BME280;26845;50.190;19.178;2023-06-19T01:45:30;98606.61;;;13.20;74.72
41102;BME280;26845;50.190;19.178;2023-06-19T01:48:03;98606.66;;;13.07;74.55
41102;BME280;26845;50.190;19.178;2023-06-19T01:50:37;98606.00;;;12.95;74.73
41102;BME280;26845;50.190;19.178;2023-06-19T01:53:11;98609.45;;;12.85;74.88
41102;BME280;26845;50.190;19.178;2023-06-19T01:55:45;98614.35;;;12.82;74.99
41102;BME280;26845;50.190;19.178;2023-06-19T01:58:18;98610.40;;;12.77;75.10
41102;BME280;26845;50.190;19.178;2023-06-19T02:01:03;98603.17;;;12.76;75.16
41102;BME280;26845;50.190;19.178;2023-06-19T02:03:37;98603.44;;;12.72;75.03
41102;BME280;26845;50.190;19.178;2023-06-19T02:06:10;98603.99;;;12.61;75.00
41102;BME280;26845;50.190;19.178;2023-06-19T02:08:44;98605.27;;;12.52;75.26
41102;BME280;26845;50.190;19.178;2023-06-19T02:11:18;98607.42;;;12.50;75.45
41102;BME280;26845;50.190;19.178;2023-06-19T02:13:52;98606.67;;;12.47;75.31
41102;BME280;26845;50.190;19.178;2023-06-19T02:16:25;98608.91;;;12.47;75.35
41102;BME280;26845;50.190;19.178;2023-06-19T02:18:59;98609.89;;;12.47;75.50
41102;BME280;26845;50.190;19.178;2023-06-19T02:21:33;98608.46;;;12.50;75.76
41102;BME280;26845;50.190;19.178;2023-06-19T02:24:06;98613.73;;;12.52;75.93
41102;BME280;26845;50.190;19.178;2023-06-19T02:26:40;98612.08;;;12.50;75.69
41102;BME280;26845;50.190;19.178;2023-06-19T02:29:14;98619.09;;;12.49;75.84
41102;BME280;26845;50.190;19.178;2023-06-19T02:31:47;98617.94;;;12.42;75.86
41102;BME280;26845;50.190;19.178;2023-06-19T02:34:21;98614.13;;;12.36;76.00
41102;BME280;26845;50.190;19.178;2023-06-19T02:36:56;98614.40;;;12.35;76.18
41102;BME280;26845;50.190;19.178;2023-06-19T02:39:30;98615.96;;;12.36;76.07
41102;BME280;26845;50.190;19.178;2023-06-19T02:42:04;98616.39;;;12.34;75.95
41102;BME280;26845;50.190;19.178;2023-06-19T02:44:37;98622.74;;;12.29;75.91
41102;BME280;26845;50.190;19.178;2023-06-19T02:47:11;98625.67;;;12.27;76.04
41102;BME280;26845;50.190;19.178;2023-06-19T02:49:45;98618.42;;;12.27;76.18
41102;BME280;26845;50.190;19.178;2023-06-19T02:52:18;98622.09;;;12.25;76.47
41102;BME280;26845;50.190;19.178;2023-06-19T02:54:52;98621.43;;;12.27;76.58
41102;BME280;26845;50.190;19.178;2023-06-19T02:57:26;98624.38;;;12.28;76.59
41102;BME280;26845;50.190;19.178;2023-06-19T02:59:59;98626.19;;;12.28;76.54
41102;BME280;26845;50.190;19.178;2023-06-19T03:02:33;98623.51;;;12.27;76.54
41102;BME280;26845;50.190;19.178;2023-06-19T03:05:07;98622.98;;;12.25;76.68
41102;BME280;26845;50.190;19.178;2023-06-19T03:07:41;98623.60;;;12.25;76.69
41102;BME280;26845;50.190;19.178;2023-06-19T03:10:14;98631.36;;;12.26;76.73
41102;BME280;26845;50.190;19.178;2023-06-19T03:12:48;98632.08;;;12.26;76.80
41102;BME280;26845;50.190;19.178;2023-06-19T03:15:22;98635.02;;;12.27;76.96
41102;BME280;26845;50.190;19.178;2023-06-19T03:17:55;98635.86;;;12.30;77.19
41102;BME280;26845;50.190;19.178;2023-06-19T03:20:29;98641.09;;;12.34;77.25
41102;BME280;26845;50.190;19.178;2023-06-19T03:23:03;98641.57;;;12.34;77.14
41102;BME280;26845;50.190;19.178;2023-06-19T03:25:36;98639.64;;;12.30;77.26
41102;BME280;26845;50.190;19.178;2023-06-19T03:28:10;98638.13;;;12.28;77.47
41102;BME280;26845;50.190;19.178;2023-06-19T03:30:44;98636.98;;;12.27;77.54
41102;BME280;26845;50.190;19.178;2023-06-19T03:33:18;98637.67;;;12.31;77.67
41102;BME280;26845;50.190;19.178;2023-06-19T03:35:51;98638.52;;;12.35;77.74
41102;BME280;26845;50.190;19.178;2023-06-19T03:38:25;98640.30;;;12.42;77.76
41102;BME280;26845;50.190;19.178;2023-06-19T03:41:07;98633.65;;;12.48;77.88
41102;BME280;26845;50.190;19.178;2023-06-19T03:43:41;98634.73;;;12.54;77.91
41102;BME280;26845;50.190;19.178;2023-06-19T03:46:15;98639.70;;;12.57;77.93
41102;BME280;26845;50.190;19.178;2023-06-19T03:48:49;98638.20;;;12.60;78.09
41102;BME280;26845;50.190;19.178;2023-06-19T03:51:22;98635.64;;;12.63;78.24
41102;BME280;26845;50.190;19.178;2023-06-19T03:53:56;98634.77;;;12.65;78.35
41102;BME280;26845;50.190;19.178;2023-06-19T03:56:30;98632.29;;;12.69;78.34
41102;BME280;26845;50.190;19.178;2023-06-19T03:59:03;98632.74;;;12.76;78.47
41102;BME280;26845;50.190;19.178;2023-06-19T04:01:37;98633.90;;;12.85;78.57
41102;BME280;26845;50.190;19.178;2023-06-19T04:04:11;98636.74;;;12.92;78.67
41102;BME280;26845;50.190;19.178;2023-06-19T04:06:44;98632.90;;;12.98;78.65
41102;BME280;26845;50.190;19.178;2023-06-19T04:09:18;98639.64;;;13.03;78.70
41102;BME280;26845;50.190;19.178;2023-06-19T04:11:52;98640.04;;;13.08;78.79
41102;BME280;26845;50.190;19.178;2023-06-19T04:14:27;98643.05;;;13.14;78.80
41102;BME280;26845;50.190;19.178;2023-06-19T04:17:01;98642.86;;;13.23;79.00
41102;BME280;26845;50.190;19.178;2023-06-19T04:19:34;98645.08;;;13.35;79.21
41102;BME280;26845;50.190;19.178;2023-06-19T04:22:08;98641.38;;;13.46;79.39
41102;BME280;26845;50.190;19.178;2023-06-19T04:24:42;98645.37;;;13.57;79.35
41102;BME280;26845;50.190;19.178;2023-06-19T04:27:15;98646.20;;;13.68;79.61
41102;BME280;26845;50.190;19.178;2023-06-19T04:29:49;98646.74;;;13.78;79.61
41102;BME280;26845;50.190;19.178;2023-06-19T04:32:23;98646.59;;;13.89;79.85
41102;BME280;26845;50.190;19.178;2023-06-19T04:34:56;98641.78;;;14.02;79.80
41102;BME280;26845;50.190;19.178;2023-06-19T04:37:30;98641.69;;;14.15;79.81
41102;BME280;26845;50.190;19.178;2023-06-19T04:40:04;98642.64;;;14.28;79.88
41102;BME280;26845;50.190;19.178;2023-06-19T04:42:38;98646.43;;;14.43;79.82
41102;BME280;26845;50.190;19.178;2023-06-19T04:45:11;98647.59;;;14.55;80.02
41102;BME280;26845;50.190;19.178;2023-06-19T04:47:45;98649.94;;;14.68;79.92
41102;BME280;26845;50.190;19.178;2023-06-19T04:50:19;98647.30;;;14.79;79.93
41102;BME280;26845;50.190;19.178;2023-06-19T04:52:52;98647.01;;;14.90;79.97
41102;BME280;26845;50.190;19.178;2023-06-19T04:55:26;98646.91;;;15.04;80.32
41102;BME280;26845;50.190;19.178;2023-06-19T04:58:00;98645.36;;;15.21;80.52
41102;BME280;26845;50.190;19.178;2023-06-19T05:00:33;98642.70;;;15.38;80.68
41102;BME280;26845;50.190;19.178;2023-06-19T05:03:07;98633.09;;;15.54;80.74
41102;BME280;26845;50.190;19.178;2023-06-19T05:05:41;98637.39;;;15.71;80.86
41102;BME280;26845;50.190;19.178;2023-06-19T05:08:14;98642.50;;;15.89;80.58
41102;BME280;26845;50.190;19.178;2023-06-19T05:10:48;98638.44;;;16.01;80.55
41102;BME280;26845;50.190;19.178;2023-06-19T05:13:28;98647.30;;;16.14;80.38
41102;BME280;26845;50.190;19.178;2023-06-19T05:16:08;98642.70;;;16.31;80.92
41102;BME280;26845;50.190;19.178;2023-06-19T05:18:48;98644.45;;;16.51;80.84
41102;BME280;26845;50.190;19.178;2023-06-19T05:21:47;98646.19;;;16.96;80.82
41102;BME280;26845;50.190;19.178;2023-06-19T05:24:14;98645.86;;;17.22;80.09
41102;BME280;26845;50.190;19.178;2023-06-19T05:26:40;98646.38;;;17.44;80.22
41102;BME280;26845;50.190;19.178;2023-06-19T05:29:06;98645.17;;;17.66;79.94
41102;BME280;26845;50.190;19.178;2023-06-19T05:31:34;98645.84;;;17.88;79.70
41102;BME280;26845;50.190;19.178;2023-06-19T05:34:01;98649.74;;;18.10;79.29
41102;BME280;26845;50.190;19.178;2023-06-19T05:36:27;98649.60;;;18.23;78.89
41102;BME280;26845;50.190;19.178;2023-06-19T05:38:53;98652.11;;;18.41;78.72
41102;BME280;26845;50.190;19.178;2023-06-19T05:41:20;98652.95;;;18.64;78.76
41102;BME280;26845;50.190;19.178;2023-06-19T05:43:46;98652.48;;;18.78;78.65
41102;BME280;26845;50.190;19.178;2023-06-19T05:46:12;98653.87;;;18.87;78.15
41102;BME280;26845;50.190;19.178;2023-06-19T05:48:39;98652.90;;;18.92;77.52
41102;BME280;26845;50.190;19.178;2023-06-19T05:51:06;98657.44;;;18.85;77.03
41102;BME280;26845;50.190;19.178;2023-06-19T05:53:33;98659.13;;;18.85;77.53
41102;BME280;26845;50.190;19.178;2023-06-19T05:55:59;98659.42;;;18.92;77.74
41102;BME280;26845;50.190;19.178;2023-06-19T05:58:27;98660.61;;;19.06;78.05
41102;BME280;26845;50.190;19.178;2023-06-19T06:00:58;98663.04;;;19.21;77.92
41102;BME280;26845;50.190;19.178;2023-06-19T06:03:40;98658.04;;;19.36;77.58
41102;BME280;26845;50.190;19.178;2023-06-19T06:06:32;98659.84;;;19.39;76.48
41102;BME280;26845;50.190;19.178;2023-06-19T06:09:18;98663.39;;;19.33;75.93
41102;BME280;26845;50.190;19.178;2023-06-19T06:12:02;98667.81;;;19.18;75.84
41102;BME280;26845;50.190;19.178;2023-06-19T06:15:08;98671.84;;;19.28;76.80
41102;BME280;26845;50.190;19.178;2023-06-19T06:17:47;98675.38;;;19.48;76.50
41102;BME280;26845;50.190;19.178;2023-06-19T06:20:14;98673.41;;;19.57;76.15
41102;BME280;26845;50.190;19.178;2023-06-19T06:22:59;98677.48;;;19.75;76.57
41102;BME280;26845;50.190;19.178;2023-06-19T06:25:30;98679.98;;;20.00;76.87
41102;BME280;26845;50.190;19.178;2023-06-19T06:28:16;98675.27;;;20.21;76.11
41102;BME280;26845;50.190;19.178;2023-06-19T06:31:04;98671.52;;;20.32;75.41
41102;BME280;26845;50.190;19.178;2023-06-19T06:33:35;98677.52;;;20.49;75.25
41102;BME280;26845;50.190;19.178;2023-06-19T06:36:21;98680.69;;;20.63;74.66
41102;BME280;26845;50.190;19.178;2023-06-19T06:39:27;98683.15;;;20.75;74.45
41102;BME280;26845;50.190;19.178;2023-06-19T06:42:32;98679.27;;;20.90;74.30
41102;BME280;26845;50.190;19.178;2023-06-19T06:45:38;98671.08;;;21.13;74.20
41102;BME280;26845;50.190;19.178;2023-06-19T06:48:25;98673.36;;;21.36;73.93
41102;BME280;26845;50.190;19.178;2023-06-19T06:51:06;98674.66;;;21.56;73.43
41102;BME280;26845;50.190;19.178;2023-06-19T06:53:52;98673.58;;;21.76;73.41
41102;BME280;26845;50.190;19.178;2023-06-19T06:56:58;98673.79;;;22.01;73.12
41102;BME280;26845;50.190;19.178;2023-06-19T07:00:04;98671.20;;;22.32;72.94
41102;BME280;26845;50.190;19.178;2023-06-19T07:03:09;98670.69;;;22.44;71.42
41102;BME280;26845;50.190;19.178;2023-06-19T07:06:15;98676.85;;;22.51;71.32
41102;BME280;26845;50.190;19.178;2023-06-19T07:09:20;98681.68;;;22.74;71.16
41102;BME280;26845;50.190;19.178;2023-06-19T07:12:25;98682.02;;;22.83;69.85
41102;BME280;26845;50.190;19.178;2023-06-19T07:15:31;98687.23;;;22.95;69.76
41102;BME280;26845;50.190;19.178;2023-06-19T07:18:37;98690.91;;;23.12;69.52
41102;BME280;26845;50.190;19.178;2023-06-19T07:21:43;98690.42;;;23.38;68.63
41102;BME280;26845;50.190;19.178;2023-06-19T07:24:48;98696.66;;;23.35;66.87
41102;BME280;26845;50.190;19.178;2023-06-19T07:27:14;98692.95;;;23.29;67.78
41102;BME280;26845;50.190;19.178;2023-06-19T07:29:40;98694.72;;;23.42;67.40
41102;BME280;26845;50.190;19.178;2023-06-19T07:32:07;98698.84;;;23.63;68.22
41102;BME280;26845;50.190;19.178;2023-06-19T07:34:33;98702.52;;;23.92;68.33
41102;BME280;26845;50.190;19.178;2023-06-19T07:36:59;98705.79;;;24.18;67.25
41102;BME280;26845;50.190;19.178;2023-06-19T07:39:25;98704.55;;;24.26;65.98
41102;BME280;26845;50.190;19.178;2023-06-19T07:41:51;98705.04;;;24.24;65.04
41102;BME280;26845;50.190;19.178;2023-06-19T07:44:18;98712.77;;;24.18;64.25
41102;BME280;26845;50.190;19.178;2023-06-19T07:46:46;98710.03;;;24.08;62.97
41102;BME280;26845;50.190;19.178;2023-06-19T07:49:12;98710.55;;;24.00;63.34
41102;BME280;26845;50.190;19.178;2023-06-19T07:51:41;98705.29;;;24.18;63.78
41102;BME280;26845;50.190;19.178;2023-06-19T07:54:20;98707.85;;;24.53;63.25
41102;BME280;26845;50.190;19.178;2023-06-19T07:57:25;98710.60;;;24.87;62.61
41102;BME280;26845;50.190;19.178;2023-06-19T08:00:31;98705.94;;;25.18;62.20
41102;BME280;26845;50.190;19.178;2023-06-19T08:03:20;98705.92;;;25.51;62.66
41102;BME280;26845;50.190;19.178;2023-06-19T08:06:25;98703.92;;;25.92;61.59
41102;BME280;26845;50.190;19.178;2023-06-19T08:08:52;98707.05;;;26.12;61.35
41102;BME280;26845;50.190;19.178;2023-06-19T08:11:18;98705.48;;;26.34;61.36
41102;BME280;26845;50.190;19.178;2023-06-19T08:14:23;98704.55;;;26.71;61.04
41102;BME280;26845;50.190;19.178;2023-06-19T08:17:09;98702.27;;;26.99;60.22
41102;BME280;26845;50.190;19.178;2023-06-19T08:20:15;98700.39;;;27.18;58.86
41102;BME280;26845;50.190;19.178;2023-06-19T08:23:00;98698.75;;;27.19;57.80
41102;BME280;26845;50.190;19.178;2023-06-19T08:25:55;98691.45;;;27.21;57.40
41102;BME280;26845;50.190;19.178;2023-06-19T08:29:01;98693.87;;;27.17;57.24
41102;BME280;26845;50.190;19.178;2023-06-19T08:32:06;98688.86;;;27.35;56.92
41102;BME280;26845;50.190;19.178;2023-06-19T08:35:24;98691.39;;;27.53;55.33
41102;BME280;26845;50.190;19.178;2023-06-19T08:38:23;98686.20;;;27.11;52.53
41102;BME280;26845;50.190;19.178;2023-06-19T08:41:11;98684.55;;;26.68;53.69
41102;BME280;26845;50.190;19.178;2023-06-19T08:43:37;98685.52;;;26.58;53.95
41102;BME280;26845;50.190;19.178;2023-06-19T08:46:20;98690.61;;;26.65;53.09
41102;BME280;26845;50.190;19.178;2023-06-19T08:49:28;98689.05;;;26.67;53.12
41102;BME280;26845;50.190;19.178;2023-06-19T08:52:30;98682.61;;;26.85;53.01
41102;BME280;26845;50.190;19.178;2023-06-19T08:55:39;98677.09;;;27.12;53.65
41102;BME280;26845;50.190;19.178;2023-06-19T08:58:41;98683.02;;;27.07;46.90
41102;BME280;26845;50.190;19.178;2023-06-19T09:01:26;98682.12;;;26.68;50.96
41102;BME280;26845;50.190;19.178;2023-06-19T09:04:11;98676.83;;;26.85;52.24
41102;BME280;26845;50.190;19.178;2023-06-19T09:06:45;98673.68;;;27.15;52.67
41102;BME280;26845;50.190;19.178;2023-06-19T09:09:13;98674.85;;;27.48;52.79
41102;BME280;26845;50.190;19.178;2023-06-19T09:11:40;98675.90;;;27.68;49.34
41102;BME280;26845;50.190;19.178;2023-06-19T09:14:09;98678.06;;;27.55;50.74
41102;BME280;26845;50.190;19.178;2023-06-19T09:16:37;98680.38;;;27.68;48.66
41102;BME280;26845;50.190;19.178;2023-06-19T09:19:05;98679.42;;;27.54;47.38
41102;BME280;26845;50.190;19.178;2023-06-19T09:21:31;98676.23;;;27.35;48.42
41102;BME280;26845;50.190;19.178;2023-06-19T09:24:04;98682.41;;;27.27;45.91
41102;BME280;26845;50.190;19.178;2023-06-19T09:26:34;98678.38;;;27.02;47.27
41102;BME280;26845;50.190;19.178;2023-06-19T09:29:10;98676.02;;;26.90;46.24
41102;BME280;26845;50.190;19.178;2023-06-19T09:31:36;98677.02;;;26.72;46.01
41102;BME280;26845;50.190;19.178;2023-06-19T09:34:03;98673.66;;;26.61;47.08
41102;BME280;26845;50.190;19.178;2023-06-19T09:36:30;98676.59;;;26.78;48.36
41102;BME280;26845;50.190;19.178;2023-06-19T09:38:57;98677.40;;;27.06;47.51
41102;BME280;26845;50.190;19.178;2023-06-19T09:41:25;98680.17;;;27.12;47.86
41102;BME280;26845;50.190;19.178;2023-06-19T09:43:52;98680.30;;;27.29;47.53
41102;BME280;26845;50.190;19.178;2023-06-19T09:46:20;98677.38;;;27.53;47.18
41102;BME280;26845;50.190;19.178;2023-06-19T09:49:07;98678.64;;;27.79;46.68
41102;BME280;26845;50.190;19.178;2023-06-19T09:51:44;98678.29;;;27.81;44.91
41102;BME280;26845;50.190;19.178;2023-06-19T09:54:18;98673.00;;;27.70;45.45
41102;BME280;26845;50.190;19.178;2023-06-19T09:56:52;98670.17;;;27.73;45.64
41102;BME280;26845;50.190;19.178;2023-06-19T09:59:25;98672.45;;;27.83;43.91
41102;BME280;26845;50.190;19.178;2023-06-19T10:01:59;98663.73;;;27.92;45.28
41102;BME280;26845;50.190;19.178;2023-06-19T10:04:45;98664.44;;;27.97;41.69
41102;BME280;26845;50.190;19.178;2023-06-19T10:07:21;98660.25;;;27.82;43.41
41102;BME280;26845;50.190;19.178;2023-06-19T10:09:55;98655.50;;;27.83;43.09
41102;BME280;26845;50.190;19.178;2023-06-19T10:12:38;98657.09;;;27.93;42.98
41102;BME280;26845;50.190;19.178;2023-06-19T10:15:18;98655.56;;;28.04;43.88
41102;BME280;26845;50.190;19.178;2023-06-19T10:18:24;98658.48;;;28.37;43.93
41102;BME280;26845;50.190;19.178;2023-06-19T10:21:15;98653.00;;;28.68;43.80
41102;BME280;26845;50.190;19.178;2023-06-19T10:26:34;98654.45;;;28.48;44.43
41102;BME280;26845;50.190;19.178;2023-06-19T10:29:15;98650.77;;;28.44;44.54
41102;BME280;26845;50.190;19.178;2023-06-19T10:31:54;98651.48;;;28.88;45.04
41102;BME280;26845;50.190;19.178;2023-06-19T10:34:53;98646.37;;;29.22;44.71
41102;BME280;26845;50.190;19.178;2023-06-19T10:37:33;98642.05;;;29.44;44.38
41102;BME280;26845;50.190;19.178;2023-06-19T10:40:32;98642.35;;;29.25;41.55
41102;BME280;26845;50.190;19.178;2023-06-19T10:43:12;98644.24;;;28.73;42.48
41102;BME280;26845;50.190;19.178;2023-06-19T10:45:52;98642.22;;;28.82;43.69
41102;BME280;26845;50.190;19.178;2023-06-19T10:48:51;98644.17;;;28.79;43.25
41102;BME280;26845;50.190;19.178;2023-06-19T10:51:34;98642.96;;;28.68;43.64
41102;BME280;26845;50.190;19.178;2023-06-19T10:54:14;98645.77;;;28.84;43.26
41102;BME280;26845;50.190;19.178;2023-06-19T10:57:13;98648.77;;;29.00;43.22
41102;BME280;26845;50.190;19.178;2023-06-19T10:59:53;98648.90;;;29.16;43.57
41102;BME280;26845;50.190;19.178;2023-06-19T11:02:33;98644.27;;;29.33;43.30
41102;BME280;26845;50.190;19.178;2023-06-19T11:05:13;98639.58;;;29.64;43.60
41102;BME280;26845;50.190;19.178;2023-06-19T11:07:54;98639.73;;;29.95;43.31
41102;BME280;26845;50.190;19.178;2023-06-19T11:10:33;98637.97;;;30.13;42.85
41102;BME280;26845;50.190;19.178;2023-06-19T11:13:17;98641.55;;;30.23;42.88
41102;BME280;26845;50.190;19.178;2023-06-19T11:16:15;98639.71;;;30.39;42.53
41102;BME280;26845;50.190;19.178;2023-06-19T11:18:42;98638.90;;;30.27;41.66
41102;BME280;26845;50.190;19.178;2023-06-19T11:21:09;98641.80;;;30.16;41.79
41102;BME280;26845;50.190;19.178;2023-06-19T11:23:35;98642.19;;;30.06;41.38
41102;BME280;26845;50.190;19.178;2023-06-19T11:26:02;98643.77;;;29.87;41.68
41102;BME280;26845;50.190;19.178;2023-06-19T11:28:28;98641.45;;;29.67;40.88
41102;BME280;26845;50.190;19.178;2023-06-19T11:31:02;98638.55;;;29.62;41.00
41102;BME280;26845;50.190;19.178;2023-06-19T11:33:28;98634.84;;;29.56;40.58
41102;BME280;26845;50.190;19.178;2023-06-19T11:35:58;98628.21;;;29.70;39.86
41102;BME280;26845;50.190;19.178;2023-06-19T11:38:25;98627.13;;;29.94;40.81
41102;BME280;26845;50.190;19.178;2023-06-19T11:40:52;98627.77;;;30.27;41.32
41102;BME280;26845;50.190;19.178;2023-06-19T11:43:27;98626.79;;;30.54;40.67
41102;BME280;26845;50.190;19.178;2023-06-19T11:45:53;98624.56;;;30.70;40.11
41102;BME280;26845;50.190;19.178;2023-06-19T11:48:24;98623.01;;;30.81;38.89
41102;BME280;26845;50.190;19.178;2023-06-19T11:50:50;98618.57;;;30.65;38.98
41102;BME280;26845;50.190;19.178;2023-06-19T11:53:58;98613.11;;;30.59;38.78
41102;BME280;26845;50.190;19.178;2023-06-19T11:57:01;98609.54;;;30.74;37.88
41102;BME280;26845;50.190;19.178;2023-06-19T11:59:41;98613.65;;;30.55;35.13
41102;BME280;26845;50.190;19.178;2023-06-19T12:02:15;98610.52;;;30.05;36.29
41102;BME280;26845;50.190;19.178;2023-06-19T12:04:55;98609.54;;;30.06;37.13
41102;BME280;26845;50.190;19.178;2023-06-19T12:07:35;98607.20;;;30.18;37.46
41102;BME280;26845;50.190;19.178;2023-06-19T12:10:15;98605.49;;;30.46;37.86
41102;BME280;26845;50.190;19.178;2023-06-19T12:12:55;98603.73;;;30.90;37.71
41102;BME280;26845;50.190;19.178;2023-06-19T12:15:35;98601.58;;;31.18;35.80
41102;BME280;26845;50.190;19.178;2023-06-19T12:18:15;98601.20;;;30.97;35.15
41102;BME280;26845;50.190;19.178;2023-06-19T12:20:55;98603.98;;;30.73;36.41
41102;BME280;26845;50.190;19.178;2023-06-19T12:23:54;98605.41;;;30.69;36.22
41102;BME280;26845;50.190;19.178;2023-06-19T12:26:34;98605.98;;;30.65;35.09
41102;BME280;26845;50.190;19.178;2023-06-19T12:29:14;98602.42;;;30.76;36.84
41102;BME280;26845;50.190;19.178;2023-06-19T12:32:13;98602.82;;;31.19;36.02
41102;BME280;26845;50.190;19.178;2023-06-19T12:34:53;98598.52;;;31.33;36.33
41102;BME280;26845;50.190;19.178;2023-06-19T12:37:33;98595.52;;;31.37;35.10
41102;BME280;26845;50.190;19.178;2023-06-19T12:40:14;98598.50;;;31.21;34.80
41102;BME280;26845;50.190;19.178;2023-06-19T12:42:53;98598.60;;;31.03;35.36
41102;BME280;26845;50.190;19.178;2023-06-19T12:45:36;98594.73;;;31.12;35.56
41102;BME280;26845;50.190;19.178;2023-06-19T12:48:36;98588.88;;;31.29;36.17
41102;BME280;26845;50.190;19.178;2023-06-19T12:51:19;98587.76;;;31.50;35.66
41102;BME280;26845;50.190;19.178;2023-06-19T12:53:59;98583.04;;;31.45;35.48
41102;BME280;26845;50.190;19.178;2023-06-19T12:56:39;98583.17;;;31.28;35.31
41102;BME280;26845;50.190;19.178;2023-06-19T12:59:19;98583.30;;;31.00;35.50
41102;BME280;26845;50.190;19.178;2023-06-19T13:01:59;98586.79;;;30.81;35.60
41102;BME280;26845;50.190;19.178;2023-06-19T13:04:39;98587.80;;;30.69;35.83
41102;BME280;26845;50.190;19.178;2023-06-19T13:07:19;98581.38;;;30.52;35.40
41102;BME280;26845;50.190;19.178;2023-06-19T13:09:59;98579.15;;;30.39;35.88
41102;BME280;26845;50.190;19.178;2023-06-19T13:12:39;98578.12;;;30.57;35.79
41102;BME280;26845;50.190;19.178;2023-06-19T13:15:19;98574.18;;;30.65;34.94
41102;BME280;26845;50.190;19.178;2023-06-19T13:17:59;98575.72;;;30.76;35.21
41102;BME280;26845;50.190;19.178;2023-06-19T13:20:39;98574.94;;;30.95;35.61
41102;BME280;26845;50.190;19.178;2023-06-19T13:23:19;98575.11;;;31.22;34.39
41102;BME280;26845;50.190;19.178;2023-06-19T13:25:59;98572.81;;;31.22;34.35
41102;BME280;26845;50.190;19.178;2023-06-19T13:28:58;98579.44;;;30.95;31.67
41102;BME280;26845;50.190;19.178;2023-06-19T13:31:38;98578.88;;;30.54;31.52
41102;BME280;26845;50.190;19.178;2023-06-19T13:34:37;98577.71;;;30.19;32.42
41102;BME280;26845;50.190;19.178;2023-06-19T13:37:17;98573.98;;;30.17;33.66
41102;BME280;26845;50.190;19.178;2023-06-19T13:40:16;98575.80;;;30.17;32.60
41102;BME280;26845;50.190;19.178;2023-06-19T13:42:56;98571.98;;;30.18;32.80
41102;BME280;26845;50.190;19.178;2023-06-19T13:45:36;98571.71;;;30.14;32.53
41102;BME280;26845;50.190;19.178;2023-06-19T13:48:35;98571.40;;;29.65;31.24
41102;BME280;26845;50.190;19.178;2023-06-19T13:51:15;98575.30;;;29.19;31.05
41102;BME280;26845;50.190;19.178;2023-06-19T13:53:55;98578.05;;;28.63;32.01
41102;BME280;26845;50.190;19.178;2023-06-19T13:56:37;98571.61;;;28.56;32.72
41102;BME280;26845;50.190;19.178;2023-06-19T13:59:15;98567.07;;;28.72;32.84
41102;BME280;26845;50.190;19.178;2023-06-19T14:01:57;98568.07;;;29.02;32.06
41102;BME280;26845;50.190;19.178;2023-06-19T14:04:35;98564.00;;;29.11;31.56
41102;BME280;26845;50.190;19.178;2023-06-19T14:07:15;98562.46;;;29.10;32.86
41102;BME280;26845;50.190;19.178;2023-06-19T14:09:55;98557.42;;;29.40;32.95